createdAt,value
2018-11-20T00:00:42.414Z,18.55
2018-11-20T00:01:42.367Z,18.55
2018-11-20T00:02:42.318Z,18.47
2018-11-20T00:03:42.270Z,18.45
2018-11-20T00:04:42.222Z,18.45
2018-11-20T00:05:42.174Z,18.51
2018-11-20T00:06:42.126Z,18.45
2018-11-20T00:07:42.078Z,18.54
2018-11-20T00:08:42.029Z,18.50
2018-11-20T00:09:41.982Z,18.45
2018-11-20T00:10:41.934Z,18.51
2018-11-20T00:11:41.885Z,18.55
2018-11-20T00:12:41.839Z,18.44
2018-11-20T00:13:41.789Z,18.48
2018-11-20T00:14:41.744Z,18.52
2018-11-20T00:15:41.693Z,18.52
2018-11-20T00:16:41.645Z,18.60
2018-11-20T00:17:41.597Z,18.50
2018-11-20T00:18:41.549Z,18.48
2018-11-20T00:19:41.500Z,18.36
2018-11-20T00:20:41.453Z,18.41
2018-11-20T00:21:41.408Z,18.35
2018-11-20T00:22:41.357Z,18.42
2018-11-20T00:23:41.308Z,18.37
2018-11-20T00:24:41.260Z,18.30
2018-11-20T00:25:41.212Z,18.29
2018-11-20T00:26:41.164Z,18.32
2018-11-20T00:27:41.116Z,18.25
2018-11-20T00:28:41.069Z,18.33
2018-11-20T00:29:41.020Z,18.29
2018-11-20T00:30:40.971Z,18.26
2018-11-20T00:31:40.922Z,18.29
2018-11-20T00:32:40.875Z,18.33
2018-11-20T00:33:40.827Z,18.32
2018-11-20T00:34:40.779Z,18.18
2018-11-20T00:35:40.730Z,18.21
2018-11-20T00:36:40.682Z,18.20
2018-11-20T00:37:40.634Z,18.18
2018-11-20T00:38:40.586Z,18.30
2018-11-20T00:39:40.537Z,18.32
2018-11-20T00:40:40.492Z,18.36
2018-11-20T00:41:40.441Z,18.35
2018-11-20T00:42:40.469Z,18.45
2018-11-20T00:43:40.346Z,18.44
2018-11-20T00:44:40.296Z,18.39
2018-11-20T00:45:40.248Z,18.35
2018-11-20T00:46:40.201Z,18.30
2018-11-20T00:47:40.151Z,18.44
2018-11-20T00:48:40.103Z,18.48
2018-11-20T00:49:40.056Z,18.50
2018-11-20T00:50:40.008Z,18.45
2018-11-20T00:51:40.008Z,18.54
2018-11-20T00:52:39.911Z,18.52
2018-11-20T00:53:39.863Z,18.60
2018-11-20T00:54:39.814Z,18.55
2018-11-20T00:55:39.766Z,18.54
2018-11-20T00:56:39.718Z,18.60
2018-11-20T00:57:39.671Z,18.55
2018-11-20T00:58:39.623Z,18.45
2018-11-20T00:59:39.573Z,18.45
2018-11-20T01:00:39.525Z,18.51
2018-11-20T01:01:39.481Z,18.47
2018-11-20T01:02:39.429Z,18.45
2018-11-20T01:03:39.383Z,18.44
2018-11-20T01:04:39.332Z,18.52
2018-11-20T01:05:39.288Z,18.48
2018-11-20T01:06:39.237Z,18.45
2018-11-20T01:07:39.188Z,18.54
2018-11-20T01:08:39.140Z,18.55
2018-11-20T01:09:39.093Z,18.55
2018-11-20T01:10:39.044Z,18.55
2018-11-20T01:11:38.996Z,18.54
2018-11-20T01:12:38.948Z,18.52
2018-11-20T01:13:38.900Z,18.55
2018-11-20T01:14:38.852Z,18.48
2018-11-20T01:15:38.804Z,18.51
2018-11-20T01:16:38.755Z,18.47
2018-11-20T01:17:38.708Z,18.48
2018-11-20T01:18:38.660Z,18.45
2018-11-20T01:19:38.610Z,18.51
2018-11-20T01:20:38.563Z,18.50
2018-11-20T01:21:38.515Z,18.44
2018-11-20T01:22:38.467Z,18.50
2018-11-20T01:23:38.418Z,18.54
2018-11-20T01:24:38.370Z,18.51
2018-11-20T01:25:38.323Z,18.52
2018-11-20T01:26:38.275Z,18.62
2018-11-20T01:27:38.543Z,18.55
2018-11-20T01:28:38.178Z,18.44
2018-11-20T01:29:38.130Z,18.51
2018-11-20T01:30:38.083Z,18.50
2018-11-20T01:31:38.034Z,18.58
2018-11-20T01:32:37.986Z,18.52
2018-11-20T01:33:37.938Z,18.50
2018-11-20T01:34:37.890Z,18.62
2018-11-20T01:35:37.841Z,18.55
2018-11-20T01:36:37.794Z,18.51
2018-11-20T01:37:37.746Z,18.54
2018-11-20T01:38:37.698Z,18.60
2018-11-20T01:39:37.649Z,18.60
2018-11-20T01:40:37.601Z,18.52
2018-11-20T01:41:37.644Z,18.51
2018-11-20T01:42:37.510Z,18.51
2018-11-20T01:43:37.458Z,18.57
2018-11-20T01:44:37.410Z,18.52
2018-11-20T01:45:37.369Z,18.50
2018-11-20T01:46:37.314Z,18.52
2018-11-20T01:47:37.265Z,18.52
2018-11-20T01:48:37.217Z,18.58
2018-11-20T01:49:37.169Z,18.51
2018-11-20T01:50:37.121Z,18.51
2018-11-20T01:51:37.073Z,18.50
2018-11-20T01:52:37.025Z,18.57
2018-11-20T01:53:36.977Z,18.50
2018-11-20T01:54:36.929Z,18.54
2018-11-20T01:55:36.881Z,18.60
2018-11-20T01:56:36.833Z,18.55
2018-11-20T01:57:36.785Z,18.45
2018-11-20T01:58:36.737Z,18.48
2018-11-20T01:59:36.688Z,18.55
2018-11-20T02:00:36.641Z,18.51
2018-11-20T02:01:36.593Z,18.51
2018-11-20T02:02:36.551Z,18.45
2018-11-20T02:03:36.500Z,18.57
2018-11-20T02:04:36.450Z,18.48
2018-11-20T02:05:36.401Z,18.51
2018-11-20T02:06:36.355Z,18.48
2018-11-20T02:07:36.304Z,18.50
2018-11-20T02:08:36.256Z,18.51
2018-11-20T02:09:36.208Z,18.58
2018-11-20T02:10:36.162Z,18.55
2018-11-20T02:11:36.111Z,18.51
2018-11-20T02:12:36.063Z,18.48
2018-11-20T02:13:36.016Z,18.57
2018-11-20T02:14:35.971Z,18.47
2018-11-20T02:15:35.919Z,18.55
2018-11-20T02:16:35.872Z,18.48
2018-11-20T02:17:35.823Z,18.44
2018-11-20T02:18:35.776Z,18.44
2018-11-20T02:19:35.727Z,18.47
2018-11-20T02:20:35.679Z,18.45
2018-11-20T02:21:35.631Z,18.55
2018-11-20T02:22:35.583Z,18.44
2018-11-20T02:23:35.534Z,18.48
2018-11-20T02:24:35.487Z,18.52
2018-11-20T02:25:35.439Z,18.50
2018-11-20T02:26:35.391Z,18.44
2018-11-20T02:27:35.342Z,18.48
2018-11-20T02:28:35.296Z,18.50
2018-11-20T02:29:35.246Z,18.47
2018-11-20T02:30:35.199Z,18.48
2018-11-20T02:31:35.150Z,18.50
2018-11-20T02:32:35.102Z,18.54
2018-11-20T02:33:35.054Z,18.50
2018-11-20T02:34:35.006Z,18.52
2018-11-20T02:35:34.958Z,18.54
2018-11-20T02:36:34.909Z,18.47
2018-11-20T02:37:34.862Z,18.48
2018-11-20T02:38:34.814Z,18.50
2018-11-20T02:39:34.765Z,18.51
2018-11-20T02:40:34.717Z,18.48
2018-11-20T02:41:34.669Z,18.57
2018-11-20T02:42:34.622Z,18.47
2018-11-20T02:43:34.573Z,18.57
2018-11-20T02:44:34.525Z,18.52
2018-11-20T02:45:34.478Z,18.48
2018-11-20T02:46:34.429Z,18.55
2018-11-20T02:47:34.381Z,18.45
2018-11-20T02:48:34.332Z,18.47
2018-11-20T02:49:34.285Z,18.51
2018-11-20T02:50:34.237Z,18.44
2018-11-20T02:51:34.308Z,18.48
2018-11-20T02:52:34.142Z,18.51
2018-11-20T02:53:34.095Z,18.48
2018-11-20T02:54:34.044Z,18.50
2018-11-20T02:55:34.312Z,18.44
2018-11-20T02:56:34.266Z,18.50
2018-11-20T02:57:33.900Z,18.52
2018-11-20T02:58:33.853Z,18.47
2018-11-20T02:59:33.803Z,18.55
2018-11-20T03:00:33.757Z,18.54
2018-11-20T03:01:33.707Z,18.45
2018-11-20T03:02:33.663Z,18.48
2018-11-20T03:03:33.664Z,18.47
2018-11-20T03:04:33.563Z,18.55
2018-11-20T03:05:33.516Z,18.48
2018-11-20T03:06:33.467Z,18.45
2018-11-20T03:07:33.422Z,18.51
2018-11-20T03:08:33.371Z,18.36
2018-11-20T03:09:33.325Z,18.35
2018-11-20T03:10:33.275Z,18.47
2018-11-20T03:11:33.226Z,18.36
2018-11-20T03:12:33.178Z,18.47
2018-11-20T03:13:33.131Z,18.35
2018-11-20T03:14:33.082Z,18.48
2018-11-20T03:15:33.036Z,18.48
2018-11-20T03:16:32.985Z,18.45
2018-11-20T03:17:32.938Z,18.54
2018-11-20T03:18:32.897Z,18.50
2018-11-20T03:19:32.841Z,18.51
2018-11-20T03:20:32.793Z,18.50
2018-11-20T03:21:32.746Z,18.54
2018-11-20T03:22:32.701Z,18.39
2018-11-20T03:23:32.649Z,18.37
2018-11-20T03:24:32.602Z,18.35
2018-11-20T03:25:32.557Z,18.36
2018-11-20T03:26:32.505Z,18.45
2018-11-20T03:27:32.456Z,18.42
2018-11-20T03:28:32.409Z,18.37
2018-11-20T03:29:32.361Z,18.48
2018-11-20T03:30:32.313Z,18.51
2018-11-20T03:31:32.264Z,18.50
2018-11-20T03:32:32.216Z,18.50
2018-11-20T03:33:32.170Z,18.50
2018-11-20T03:34:32.124Z,18.47
2018-11-20T03:35:32.071Z,18.50
2018-11-20T03:36:32.024Z,18.47
2018-11-20T03:37:31.976Z,18.37
2018-11-20T03:38:31.928Z,18.50
2018-11-20T03:39:31.879Z,18.51
2018-11-20T03:40:31.831Z,18.45
2018-11-20T03:41:31.784Z,18.45
2018-11-20T03:42:31.739Z,18.48
2018-11-20T03:43:31.686Z,18.51
2018-11-20T03:44:31.639Z,18.41
2018-11-20T03:45:31.595Z,18.52
2018-11-20T03:46:31.543Z,18.47
2018-11-20T03:47:31.544Z,18.45
2018-11-20T03:48:31.446Z,18.47
2018-11-20T03:49:31.398Z,18.55
2018-11-20T03:50:31.350Z,18.45
2018-11-20T03:51:31.301Z,18.58
2018-11-20T03:52:31.254Z,18.58
2018-11-20T03:53:31.206Z,18.51
2018-11-20T03:54:31.159Z,18.52
2018-11-20T03:55:31.109Z,18.52
2018-11-20T03:56:31.061Z,18.52
2018-11-20T03:57:31.013Z,18.51
2018-11-20T03:58:30.965Z,18.51
2018-11-20T03:59:30.916Z,18.52
2018-11-20T04:00:30.869Z,18.55
2018-11-20T04:01:30.830Z,18.55
2018-11-20T04:02:30.773Z,18.51
2018-11-20T04:03:30.724Z,18.55
2018-11-20T04:04:30.676Z,18.51
2018-11-20T04:05:30.629Z,18.51
2018-11-20T04:06:30.580Z,18.52
2018-11-20T04:07:30.533Z,18.47
2018-11-20T04:08:30.483Z,18.54
2018-11-20T04:09:30.442Z,18.44
2018-11-20T04:10:30.388Z,18.48
2018-11-20T04:11:30.339Z,18.47
2018-11-20T04:12:30.292Z,18.45
2018-11-20T04:13:30.294Z,18.57
2018-11-20T04:14:30.202Z,18.51
2018-11-20T04:15:30.148Z,18.54
2018-11-20T04:16:30.099Z,18.54
2018-11-20T04:17:30.051Z,18.47
2018-11-20T04:18:30.003Z,18.45
2018-11-20T04:19:29.954Z,18.51
2018-11-20T04:20:29.911Z,18.52
2018-11-20T04:21:29.860Z,18.52
2018-11-20T04:22:29.811Z,18.55
2018-11-20T04:23:29.763Z,18.51
2018-11-20T04:24:29.715Z,18.52
2018-11-20T04:25:29.667Z,18.48
2018-11-20T04:26:29.619Z,18.55
2018-11-20T04:27:29.571Z,18.52
2018-11-20T04:28:29.524Z,18.58
2018-11-20T04:29:29.475Z,18.52
2018-11-20T04:30:29.426Z,18.51
2018-11-20T04:31:29.379Z,18.54
2018-11-20T04:32:29.336Z,18.52
2018-11-20T04:33:29.282Z,18.55
2018-11-20T04:34:29.234Z,18.44
2018-11-20T04:35:29.186Z,18.55
2018-11-20T04:36:29.138Z,18.48
2018-11-20T04:37:29.094Z,18.48
2018-11-20T04:38:29.042Z,18.47
2018-11-20T04:39:28.994Z,18.51
2018-11-20T04:40:28.946Z,18.51
2018-11-20T04:41:28.899Z,18.55
2018-11-20T04:42:28.854Z,18.52
2018-11-20T04:43:28.801Z,18.45
2018-11-20T04:44:28.754Z,18.44
2018-11-20T04:45:28.706Z,18.45
2018-11-20T04:46:28.658Z,18.48
2018-11-20T04:47:28.609Z,18.47
2018-11-20T04:48:28.561Z,18.45
2018-11-20T04:49:28.514Z,18.45
2018-11-20T04:50:28.466Z,18.47
2018-11-20T04:51:28.417Z,18.54
2018-11-20T04:52:28.369Z,18.45
2018-11-20T04:53:28.324Z,18.42
2018-11-20T04:54:28.274Z,18.37
2018-11-20T04:55:28.225Z,18.35
2018-11-20T04:56:28.177Z,18.35
2018-11-20T04:57:28.158Z,18.32
2018-11-20T04:58:28.083Z,18.41
2018-11-20T04:59:28.033Z,18.39
2018-11-20T05:00:27.986Z,18.35
2018-11-20T05:01:27.937Z,18.35
2018-11-20T05:02:27.889Z,18.35
2018-11-20T05:03:27.840Z,18.37
2018-11-20T05:04:27.793Z,18.37
2018-11-20T05:05:27.744Z,18.30
2018-11-20T05:06:27.727Z,18.35
2018-11-20T05:07:27.648Z,18.39
2018-11-20T05:08:27.600Z,18.39
2018-11-20T05:09:27.552Z,18.37
2018-11-20T05:10:27.504Z,18.29
2018-11-20T05:11:27.456Z,18.32
2018-11-20T05:12:27.408Z,18.14
2018-11-20T05:13:27.557Z,18.26
2018-11-20T05:14:27.311Z,18.25
2018-11-20T05:15:27.262Z,18.21
2018-11-20T05:16:27.215Z,18.29
2018-11-20T05:17:27.166Z,18.17
2018-11-20T05:18:27.119Z,18.27
2018-11-20T05:19:27.070Z,18.27
2018-11-20T05:20:27.023Z,18.27
2018-11-20T05:21:26.975Z,18.17
2018-11-20T05:22:26.926Z,18.26
2018-11-20T05:23:26.879Z,18.29
2018-11-20T05:24:26.830Z,18.29
2018-11-20T05:25:26.781Z,18.25
2018-11-20T05:26:26.734Z,18.23
2018-11-20T05:27:26.688Z,18.25
2018-11-20T05:28:26.637Z,18.29
2018-11-20T05:29:26.589Z,18.18
2018-11-20T05:30:26.542Z,18.30
2018-11-20T05:31:26.492Z,18.25
2018-11-20T05:32:26.444Z,18.30
2018-11-20T05:33:26.396Z,18.25
2018-11-20T05:34:26.348Z,18.21
2018-11-20T05:35:26.299Z,18.27
2018-11-20T05:36:26.252Z,18.23
2018-11-20T05:37:26.206Z,18.25
2018-11-20T05:38:26.155Z,18.15
2018-11-20T05:39:26.108Z,18.14
2018-11-20T05:40:26.098Z,18.15
2018-11-20T05:41:26.010Z,18.12
2018-11-20T05:42:25.962Z,18.08
2018-11-20T05:43:25.913Z,18.17
2018-11-20T05:44:25.865Z,18.18
2018-11-20T05:45:25.817Z,18.21
2018-11-20T05:46:25.769Z,18.23
2018-11-20T05:47:25.721Z,18.23
2018-11-20T05:48:25.672Z,18.25
2018-11-20T05:49:25.624Z,18.23
2018-11-20T05:50:25.576Z,18.15
2018-11-20T05:51:25.527Z,18.25
2018-11-20T05:52:25.478Z,18.18
2018-11-20T05:53:25.431Z,18.23
2018-11-20T05:54:25.382Z,18.20
2018-11-20T05:55:25.336Z,18.29
2018-11-20T05:56:25.285Z,18.27
2018-11-20T05:57:25.237Z,18.23
2018-11-20T05:58:25.189Z,18.23
2018-11-20T05:59:25.143Z,18.26
2018-11-20T06:00:25.093Z,18.26
2018-11-20T06:01:25.045Z,18.26
2018-11-20T06:02:24.996Z,18.21
2018-11-20T06:03:24.948Z,18.25
2018-11-20T06:04:24.899Z,18.25
2018-11-20T06:05:24.853Z,18.23
2018-11-20T06:06:24.803Z,18.21
2018-11-20T06:07:24.754Z,18.25
2018-11-20T06:08:24.706Z,18.27
2018-11-20T06:09:24.657Z,18.20
2018-11-20T06:10:24.610Z,18.26
2018-11-20T06:11:24.611Z,18.26
2018-11-20T06:12:24.513Z,18.26
2018-11-20T06:13:24.465Z,18.15
2018-11-20T06:14:24.417Z,18.20
2018-11-20T06:15:24.368Z,18.17
2018-11-20T06:16:24.319Z,18.27
2018-11-20T06:17:24.271Z,18.23
2018-11-20T06:18:24.223Z,18.25
2018-11-20T06:19:24.174Z,18.26
2018-11-20T06:20:24.126Z,18.30
2018-11-20T06:21:24.078Z,18.26
2018-11-20T06:22:24.030Z,18.29
2018-11-20T06:23:23.981Z,18.30
2018-11-20T06:24:23.933Z,18.23
2018-11-20T06:25:23.885Z,18.21
2018-11-20T06:26:23.838Z,18.27
2018-11-20T06:27:23.788Z,18.15
2018-11-20T06:28:23.740Z,18.26
2018-11-20T06:29:23.827Z,18.25
2018-11-20T06:30:23.643Z,18.26
2018-11-20T06:31:23.597Z,18.30
2018-11-20T06:32:23.546Z,18.26
2018-11-20T06:33:23.499Z,18.27
2018-11-20T06:34:23.503Z,18.32
2018-11-20T06:35:23.401Z,18.25
2018-11-20T06:36:23.354Z,18.25
2018-11-20T06:37:23.311Z,18.27
2018-11-20T06:38:23.256Z,18.26
2018-11-20T06:39:23.211Z,18.20
2018-11-20T06:40:23.163Z,18.15
2018-11-20T06:41:23.234Z,18.18
2018-11-20T06:42:23.064Z,18.25
2018-11-20T06:43:23.015Z,18.17
2018-11-20T06:44:22.968Z,18.30
2018-11-20T06:45:22.919Z,18.29
2018-11-20T06:46:22.872Z,18.25
2018-11-20T06:47:22.922Z,18.27
2018-11-20T06:48:22.774Z,18.26
2018-11-20T06:49:22.726Z,18.21
2018-11-20T06:50:22.678Z,18.30
2018-11-20T06:51:22.629Z,18.23
2018-11-20T06:52:22.583Z,18.32
2018-11-20T06:53:22.604Z,18.27
2018-11-20T06:54:22.486Z,18.20
2018-11-20T06:55:22.437Z,18.14
2018-11-20T06:56:22.390Z,18.23
2018-11-20T06:57:22.392Z,18.25
2018-11-20T06:58:22.292Z,18.25
2018-11-20T06:59:22.243Z,18.25
2018-11-20T07:00:22.196Z,18.20
2018-11-20T07:01:22.174Z,18.23
2018-11-20T07:02:22.416Z,18.23
2018-11-20T07:03:22.050Z,18.25
2018-11-20T07:04:22.002Z,18.26
2018-11-20T07:05:21.953Z,18.27
2018-11-20T07:06:21.905Z,18.23
2018-11-20T07:07:22.003Z,18.25
2018-11-20T07:08:21.901Z,18.20
2018-11-20T07:09:21.760Z,18.30
2018-11-20T07:10:21.713Z,18.25
2018-11-20T07:11:21.664Z,18.27
2018-11-20T07:12:21.616Z,18.35
2018-11-20T07:13:21.568Z,18.21
2018-11-20T07:14:21.527Z,18.32
2018-11-20T07:15:21.588Z,18.26
2018-11-20T07:16:21.477Z,18.27
2018-11-20T07:17:21.375Z,18.32
2018-11-20T07:18:21.376Z,18.33
2018-11-20T07:19:21.277Z,18.23
2018-11-20T07:20:21.230Z,18.17
2018-11-20T07:21:21.182Z,18.33
2018-11-20T07:22:21.148Z,18.21
2018-11-20T07:23:21.085Z,18.18
2018-11-20T07:24:21.057Z,18.23
2018-11-20T07:25:21.039Z,18.21
2018-11-20T07:26:20.940Z,18.27
2018-11-20T07:27:20.942Z,18.14
2018-11-20T07:28:20.844Z,18.20
2018-11-20T07:29:20.803Z,18.25
2018-11-20T07:30:20.847Z,18.17
2018-11-20T07:31:20.816Z,18.26
2018-11-20T07:32:20.651Z,18.30
2018-11-20T07:33:20.602Z,18.30
2018-11-20T07:34:20.554Z,18.21
2018-11-20T07:35:20.505Z,18.21
2018-11-20T07:36:20.582Z,18.27
2018-11-20T07:37:20.741Z,18.26
2018-11-20T07:38:20.396Z,18.29
2018-11-20T07:39:20.319Z,18.32
2018-11-20T07:40:20.264Z,18.26
2018-11-20T07:41:20.216Z,18.29
2018-11-20T07:42:20.167Z,18.29
2018-11-20T07:43:20.151Z,18.29
2018-11-20T07:44:20.192Z,18.35
2018-11-20T07:45:20.074Z,18.37
2018-11-20T07:46:19.982Z,18.35
2018-11-20T07:47:19.927Z,18.35
2018-11-20T07:48:19.880Z,18.33
2018-11-20T07:49:19.831Z,18.36
2018-11-20T07:50:19.783Z,18.29
2018-11-20T07:51:19.733Z,18.32
2018-11-20T07:52:19.686Z,18.30
2018-11-20T07:53:19.637Z,18.30
2018-11-20T07:54:19.590Z,18.32
2018-11-20T07:55:19.559Z,18.36
2018-11-20T07:56:19.672Z,18.36
2018-11-20T07:57:19.443Z,18.36
2018-11-20T07:58:19.407Z,18.32
2018-11-20T07:59:19.347Z,18.41
2018-11-20T08:00:19.300Z,18.37
2018-11-20T08:01:19.251Z,18.35
2018-11-20T08:02:19.285Z,18.36
2018-11-20T08:03:19.205Z,18.36
2018-11-20T08:04:19.106Z,18.27
2018-11-20T08:05:19.058Z,18.35
2018-11-20T08:06:19.011Z,18.36
2018-11-20T08:07:18.964Z,18.36
2018-11-20T08:08:18.950Z,18.39
2018-11-20T08:09:18.873Z,18.36
2018-11-20T08:10:18.842Z,18.32
2018-11-20T08:11:18.771Z,18.45
2018-11-20T08:12:18.721Z,18.47
2018-11-20T08:13:18.672Z,18.44
2018-11-20T08:14:18.625Z,18.50
2018-11-20T08:15:18.605Z,18.48
2018-11-20T08:16:18.527Z,18.51
2018-11-20T08:17:18.480Z,18.51
2018-11-20T08:18:18.432Z,18.50
2018-11-20T08:19:18.383Z,18.54
2018-11-20T08:20:18.338Z,18.55
2018-11-20T08:21:18.286Z,18.51
2018-11-20T08:22:18.239Z,18.51
2018-11-20T08:23:18.190Z,18.55
2018-11-20T08:24:18.146Z,18.52
2018-11-20T08:25:18.107Z,18.55
2018-11-20T08:26:18.232Z,18.51
2018-11-20T08:27:17.997Z,18.44
2018-11-20T08:28:17.950Z,18.47
2018-11-20T08:29:17.902Z,18.50
2018-11-20T08:30:17.853Z,18.55
2018-11-20T08:31:17.806Z,18.50
2018-11-20T08:32:17.758Z,18.52
2018-11-20T08:33:17.710Z,18.48
2018-11-20T08:34:17.736Z,18.52
2018-11-20T08:35:17.831Z,18.42
2018-11-20T08:36:17.567Z,18.55
2018-11-20T08:37:17.577Z,18.55
2018-11-20T08:38:17.469Z,18.58
2018-11-20T08:39:17.420Z,18.52
2018-11-20T08:40:17.372Z,18.50
2018-11-20T08:41:17.325Z,18.48
2018-11-20T08:42:17.353Z,18.55
2018-11-20T08:43:17.227Z,18.52
2018-11-20T08:44:17.194Z,18.47
2018-11-20T08:45:17.182Z,18.54
2018-11-20T08:46:17.084Z,18.55
2018-11-20T08:47:17.036Z,18.47
2018-11-20T08:48:17.095Z,18.47
2018-11-20T08:49:16.991Z,18.42
2018-11-20T08:50:16.892Z,18.52
2018-11-20T08:51:16.842Z,18.47
2018-11-20T08:52:16.796Z,18.47
2018-11-20T08:53:16.748Z,18.51
2018-11-20T08:54:16.700Z,18.52
2018-11-20T08:55:16.651Z,18.52
2018-11-20T08:56:16.602Z,18.51
2018-11-20T08:57:16.556Z,18.50
2018-11-20T08:58:16.507Z,18.50
2018-11-20T08:59:16.459Z,18.45
2018-11-20T09:00:16.410Z,18.47
2018-11-20T09:01:16.364Z,18.45
2018-11-20T09:02:16.469Z,18.45
2018-11-20T09:03:16.433Z,18.50
2018-11-20T09:04:16.219Z,18.45
2018-11-20T09:05:16.171Z,18.47
2018-11-20T09:06:16.122Z,18.52
2018-11-20T09:07:16.074Z,18.48
2018-11-20T09:08:16.026Z,18.48
2018-11-20T09:09:15.979Z,18.45
2018-11-20T09:10:15.989Z,18.47
2018-11-20T09:11:15.885Z,18.47
2018-11-20T09:12:15.839Z,18.48
2018-11-20T09:13:15.786Z,18.45
2018-11-20T09:14:15.737Z,18.52
2018-11-20T09:15:15.689Z,18.51
2018-11-20T09:16:15.640Z,18.58
2018-11-20T09:17:15.594Z,18.52
2018-11-20T09:18:15.546Z,18.48
2018-11-20T09:19:15.496Z,18.45
2018-11-20T09:20:15.463Z,18.60
2018-11-20T09:21:15.485Z,18.48
2018-11-20T09:22:15.353Z,18.55
2018-11-20T09:23:15.304Z,18.47
2018-11-20T09:24:15.256Z,18.45
2018-11-20T09:25:15.210Z,18.48
2018-11-20T09:26:15.162Z,18.47
2018-11-20T09:27:15.112Z,18.55
2018-11-20T09:28:15.064Z,18.51
2018-11-20T09:29:15.017Z,18.51
2018-11-20T09:30:14.969Z,18.44
2018-11-20T09:31:14.920Z,18.47
2018-11-20T09:32:14.871Z,18.45
2018-11-20T09:33:14.874Z,18.50
2018-11-20T09:34:14.843Z,18.51
2018-11-20T09:35:14.850Z,18.51
2018-11-20T09:36:14.680Z,18.44
2018-11-20T09:37:14.633Z,18.51
2018-11-20T09:38:14.584Z,18.37
2018-11-20T09:39:14.585Z,18.42
2018-11-20T09:40:14.486Z,18.44
2018-11-20T09:41:14.438Z,18.45
2018-11-20T09:42:14.391Z,18.51
2018-11-20T09:43:14.342Z,18.50
2018-11-20T09:44:14.294Z,18.44
2018-11-20T09:45:14.245Z,18.41
2018-11-20T09:46:14.198Z,18.45
2018-11-20T09:47:14.291Z,18.50
2018-11-20T09:48:14.101Z,18.50
2018-11-20T09:49:14.055Z,18.47
2018-11-20T09:50:14.006Z,18.52
2018-11-20T09:51:13.957Z,18.44
2018-11-20T09:52:13.933Z,18.50
2018-11-20T09:53:13.860Z,18.52
2018-11-20T09:54:13.826Z,18.51
2018-11-20T09:55:13.768Z,18.50
2018-11-20T09:56:13.718Z,18.47
2018-11-20T09:57:13.668Z,18.47
2018-11-20T09:58:13.621Z,18.39
2018-11-20T09:59:13.583Z,18.44
2018-11-20T10:00:13.529Z,18.47
2018-11-20T10:01:13.477Z,18.47
2018-11-20T10:02:13.428Z,18.44
2018-11-20T10:03:13.380Z,18.50
2018-11-20T10:04:13.332Z,18.47
2018-11-20T10:05:13.286Z,18.55
2018-11-20T10:06:13.237Z,18.57
2018-11-20T10:07:13.256Z,18.52
2018-11-20T10:08:13.140Z,18.50
2018-11-20T10:09:13.093Z,18.48
2018-11-20T10:10:13.044Z,18.50
2018-11-20T10:11:12.994Z,18.42
2018-11-20T10:12:12.947Z,18.45
2018-11-20T10:13:12.900Z,18.36
2018-11-20T10:14:12.984Z,18.37
2018-11-20T10:15:12.861Z,18.41
2018-11-20T10:16:12.755Z,18.48
2018-11-20T10:17:12.707Z,18.39
2018-11-20T10:18:12.660Z,18.30
2018-11-20T10:19:12.610Z,18.35
2018-11-20T10:20:12.568Z,18.32
2018-11-20T10:21:12.516Z,18.37
2018-11-20T10:22:12.589Z,18.36
2018-11-20T10:23:12.418Z,18.36
2018-11-20T10:24:12.369Z,18.35
2018-11-20T10:25:12.377Z,18.39
2018-11-20T10:26:12.394Z,18.36
2018-11-20T10:27:12.225Z,18.29
2018-11-20T10:28:12.178Z,18.36
2018-11-20T10:29:12.132Z,18.30
2018-11-20T10:30:12.082Z,18.37
2018-11-20T10:31:12.033Z,18.39
2018-11-20T10:32:11.985Z,18.33
2018-11-20T10:33:11.937Z,18.37
2018-11-20T10:34:11.954Z,18.39
2018-11-20T10:35:11.840Z,18.35
2018-11-20T10:36:11.792Z,18.36
2018-11-20T10:37:11.745Z,18.35
2018-11-20T10:38:11.697Z,18.35
2018-11-20T10:39:11.647Z,18.36
2018-11-20T10:40:11.647Z,18.37
2018-11-20T10:41:11.553Z,18.35
2018-11-20T10:42:11.504Z,18.39
2018-11-20T10:43:11.455Z,18.35
2018-11-20T10:44:11.407Z,18.33
2018-11-20T10:45:11.365Z,18.39
2018-11-20T10:46:11.420Z,18.39
2018-11-20T10:47:11.263Z,18.44
2018-11-20T10:48:11.214Z,18.45
2018-11-20T10:49:11.166Z,18.50
2018-11-20T10:50:11.124Z,18.35
2018-11-20T10:51:11.140Z,18.39
2018-11-20T10:52:11.022Z,18.36
2018-11-20T10:53:10.973Z,18.50
2018-11-20T10:54:10.940Z,18.54
2018-11-20T10:55:10.877Z,18.47
2018-11-20T10:56:10.834Z,18.48
2018-11-20T10:57:10.782Z,18.47
2018-11-20T10:58:10.734Z,18.50
2018-11-20T10:59:10.687Z,18.48
2018-11-20T11:00:10.637Z,18.41
2018-11-20T11:01:10.589Z,18.54
2018-11-20T11:02:10.540Z,18.45
2018-11-20T11:03:10.492Z,18.44
2018-11-20T11:04:10.481Z,18.36
2018-11-20T11:05:10.521Z,18.45
2018-11-20T11:06:10.373Z,18.45
2018-11-20T11:07:10.671Z,18.32
2018-11-20T11:08:10.347Z,18.33
2018-11-20T11:09:10.203Z,18.35
2018-11-20T11:10:10.161Z,18.36
2018-11-20T11:11:10.106Z,18.36
2018-11-20T11:12:10.095Z,18.39
2018-11-20T11:13:10.012Z,18.36
2018-11-20T11:14:09.963Z,18.35
2018-11-20T11:15:09.915Z,18.36
2018-11-20T11:16:09.866Z,18.29
2018-11-20T11:17:09.819Z,18.29
2018-11-20T11:18:09.810Z,18.32
2018-11-20T11:19:09.726Z,18.32
2018-11-20T11:20:09.692Z,18.27
2018-11-20T11:21:09.749Z,18.35
2018-11-20T11:22:09.582Z,18.30
2018-11-20T11:23:09.531Z,18.30
2018-11-20T11:24:09.483Z,18.29
2018-11-20T11:25:09.443Z,18.32
2018-11-20T11:26:09.388Z,18.37
2018-11-20T11:27:09.338Z,18.35
2018-11-20T11:28:09.290Z,18.33
2018-11-20T11:29:09.246Z,18.30
2018-11-20T11:30:09.195Z,18.37
2018-11-20T11:31:09.146Z,18.36
2018-11-20T11:32:09.098Z,18.37
2018-11-20T11:33:09.050Z,18.30
2018-11-20T11:34:09.007Z,18.36
2018-11-20T11:35:08.954Z,18.35
2018-11-20T11:36:08.906Z,18.36
2018-11-20T11:37:08.876Z,18.39
2018-11-20T11:38:08.810Z,18.35
2018-11-20T11:39:08.764Z,18.35
2018-11-20T11:40:08.713Z,18.36
2018-11-20T11:41:08.665Z,18.32
2018-11-20T11:42:08.617Z,18.35
2018-11-20T11:43:08.568Z,18.35
2018-11-20T11:44:08.520Z,18.35
2018-11-20T11:45:08.477Z,18.39
2018-11-20T11:46:08.423Z,18.29
2018-11-20T11:47:08.375Z,18.35
2018-11-20T11:48:08.327Z,18.35
2018-11-20T11:49:08.280Z,18.30
2018-11-20T11:50:08.231Z,18.30
2018-11-20T11:51:08.182Z,18.32
2018-11-20T11:52:08.135Z,18.33
2018-11-20T11:53:08.087Z,18.32
2018-11-20T11:54:08.043Z,18.29
2018-11-20T11:55:08.020Z,18.29
2018-11-20T11:56:07.946Z,18.32
2018-11-20T11:57:07.894Z,18.29
2018-11-20T11:58:07.846Z,18.39
2018-11-20T11:59:07.800Z,18.37
2018-11-20T12:00:07.751Z,18.33
2018-11-20T12:01:07.700Z,18.35
2018-11-20T12:03:46.961Z,18.32
2018-11-20T12:04:46.912Z,18.29
2018-11-20T12:05:46.862Z,18.33
2018-11-20T12:06:46.815Z,18.23
2018-11-20T12:07:47.225Z,18.18
2018-11-20T12:08:46.720Z,18.18
2018-11-20T12:09:46.672Z,18.27
2018-11-20T12:10:46.634Z,18.25
2018-11-20T12:11:46.575Z,18.26
2018-11-20T12:12:46.526Z,18.29
2018-11-20T12:13:46.477Z,18.25
2018-11-20T12:14:47.197Z,18.27
2018-11-20T12:15:46.381Z,18.35
2018-11-20T12:16:46.333Z,18.29
2018-11-20T12:17:46.284Z,18.29
2018-11-20T12:18:46.236Z,18.32
2018-11-20T12:19:46.188Z,18.32
2018-11-20T12:20:46.140Z,18.33
2018-11-20T12:21:46.091Z,18.25
2018-11-20T12:22:46.042Z,18.15
2018-11-20T12:23:46.006Z,18.17
2018-11-20T12:24:47.345Z,18.15
2018-11-20T12:25:45.898Z,18.12
2018-11-20T12:26:45.849Z,18.03
2018-11-20T12:27:45.802Z,18.11
2018-11-20T12:28:45.755Z,18.12
2018-11-20T12:29:45.708Z,18.10
2018-11-20T12:30:45.658Z,18.10
2018-11-20T12:31:45.618Z,18.15
2018-11-20T12:32:47.145Z,18.12
2018-11-20T12:33:45.511Z,18.12
2018-11-20T12:34:45.463Z,18.14
2018-11-20T12:35:45.414Z,18.18
2018-11-20T12:36:45.369Z,18.17
2018-11-20T12:37:45.321Z,18.14
2018-11-20T12:38:45.270Z,18.27
2018-11-20T12:39:45.221Z,18.30
2018-11-20T12:40:45.173Z,18.23
2018-11-20T12:41:46.313Z,18.32
2018-11-20T12:42:45.082Z,18.30
2018-11-20T12:43:45.028Z,18.41
2018-11-20T12:44:44.979Z,18.41
2018-11-20T12:45:44.929Z,18.29
2018-11-20T12:46:44.883Z,18.27
2018-11-20T12:47:44.835Z,18.32
2018-11-20T12:48:44.787Z,18.29
2018-11-20T12:49:44.737Z,18.25
2018-11-20T12:50:46.839Z,18.29
2018-11-20T12:51:46.400Z,18.29
2018-11-20T12:52:44.593Z,18.36
2018-11-20T12:53:44.544Z,18.36